Little Sioux, Iowa
Current Conditions -  °F | °C
As of 10:54 PM on Sunday 19 Oct 2014 (Local Time) from KTQE Reporting Station
Clear Clear  
Wind Chill: 50°   Ceiling: Unl
Heat Index: 50°   Visibility: 10mi
Dew Point: 45°   Wind: 0mph
Humidity: 83%   Direction: NA
Pressure: 29.94"   Gusts: NA
Location:  41.81°N, 96.02°W
Report Text: KTQE 200354Z AUTO 00000KT 10SM CLR 10/07 A2994 RMK AO2 SLP134 T01000072
Loading
Personal Weather Stations






























Interactive Weather Map
Tropical Storm Tracking
New forecast layout! Learn more

10-Day Weather Forecast

Advertisements
Track Severe Weather on mobile